Time;durP1;ratioP1;P1;durP2;ratioP2;P2;SDS_P1;SDS_P2;PMS_P1;PMS_P2;Temp;Humidity;BMP_temperature;BMP_pressure;BME280_temperature;BME280_humidity;BME280_pressure;Samples;Min_cycle;Max_cycle;Signal;HPM_P1;HPM_P2
2022/10/09 00:00:36;;;;;;;;;;;;;;;12.67;64.93;101163.81;5041653;28;19925;-94
2022/10/09 00:03:01;;;;;;;;;;;;;;;12.60;65.07;101152.00;5040018;28;19988;-94
2022/10/09 00:05:30;;;;;;;;;;;;;;;12.66;64.78;101151.31;5056505;28;19978;-95
2022/10/09 00:07:56;;;;;;;;;;;;;;;12.67;64.59;101153.88;5058877;28;19912;-95
2022/10/09 00:10:22;;;;;;;;;;;;;;;12.60;64.79;101141.19;5017962;28;19929;-94
2022/10/09 00:12:49;;;;;;;;;;;;;;;12.55;64.37;101139.00;5019098;28;20301;-93
2022/10/09 00:15:14;;;;;;;;;;;;;;;12.59;64.30;101134.09;5021105;28;19940;-92
2022/10/09 00:17:39;;;;;;;;;;;;;;;12.57;64.17;101136.09;5040672;28;19916;-87
2022/10/09 00:20:05;;;;;;;;;;;;;;;12.55;64.18;101132.72;5043379;28;19991;-91
2022/10/09 00:22:37;;;;;;;;;;;;;;;12.51;64.10;101136.78;5073184;28;19940;-92
2022/10/09 00:25:35;;;;;;;;;;;;;;;12.53;64.10;101132.06;5056113;28;19909;-91
2022/10/09 00:31:14;;;;;;;;;;;;;;;12.24;64.36;101131.44;5058260;28;19927;-89
2022/10/09 00:33:54;;;;;;;;;;;;;;;12.28;64.18;101128.41;5049991;28;19951;-92
2022/10/09 00:36:21;;;;;;;;;;;;;;;12.20;63.94;101129.22;5050815;28;19920;-91
2022/10/09 00:38:56;;;;;;;;;;;;;;;12.27;63.62;101127.56;5074081;28;19913;-89
2022/10/09 00:41:27;;;;;;;;;;;;;;;12.29;63.04;101133.66;5045591;28;19926;-90
2022/10/09 00:43:59;;;;;;;;;;;;;;;12.31;62.78;101126.22;5053183;28;19920;-94
2022/10/09 00:46:37;;;;;;;;;;;;;;;12.13;62.98;101128.16;5025501;28;19921;-94
2022/10/09 00:49:23;;;;;;;;;;;;;;;12.08;62.96;101130.47;5054101;28;19917;-88
2022/10/09 00:51:48;;;;;;;;;;;;;;;12.16;62.40;101133.22;5051898;28;19943;-94
2022/10/09 00:54:14;;;;;;;;;;;;;;;11.99;62.52;101132.28;5035569;28;19920;-94
2022/10/09 00:56:41;;;;;;;;;;;;;;;12.04;62.24;101133.50;5017359;28;19936;-91
2022/10/09 00:59:10;;;;;;;;;;;;;;;12.04;62.11;101130.78;5026217;28;20391;-91
2022/10/09 01:01:36;;;;;;;;;;;;;;;11.87;62.68;101128.13;5013028;28;19952;-92
2022/10/09 01:04:09;;;;;;;;;;;;;;;11.81;62.82;101129.59;5021287;28;19917;-93
2022/10/09 01:06:37;;;;;;;;;;;;;;;11.76;62.99;101121.16;5022762;28;19916;-93
2022/10/09 01:09:06;;;;;;;;;;;;;;;11.82;62.66;101123.19;5056608;28;19923;-92
2022/10/09 01:12:01;;;;;;;;;;;;;;;11.80;62.66;101123.38;5032520;28;20118;-90
2022/10/09 01:14:36;;;;;;;;;;;;;;;11.81;62.58;101116.97;5040630;28;19929;-91
2022/10/09 01:17:21;;;;;;;;;;;;;;;11.69;62.88;101120.94;5018751;28;19994;-89
2022/10/09 01:19:49;;;;;;;;;;;;;;;11.68;62.77;101116.53;5020612;28;19921;-92
2022/10/09 01:22:22;;;;;;;;;;;;;;;11.69;62.81;101120.09;5026565;28;19929;-91
2022/10/09 01:24:50;;;;;;;;;;;;;;;11.79;62.66;101110.06;5040312;28;19948;-92
2022/10/09 01:27:17;;;;;;;;;;;;;;;11.72;62.69;101117.06;5028471;28;19989;-91
2022/10/09 01:29:44;;;;;;;;;;;;;;;11.75;62.65;101119.44;5029684;28;19930;-92
2022/10/09 01:32:10;;;;;;;;;;;;;;;11.72;62.68;101109.00;5027980;28;19925;-91
2022/10/09 01:34:35;;;;;;;;;;;;;;;11.68;62.81;101105.75;5025996;28;19940;-91
2022/10/09 01:37:00;;;;;;;;;;;;;;;11.66;62.77;101109.59;5027123;28;19976;-92
2022/10/09 01:39:26;;;;;;;;;;;;;;;11.61;62.97;101112.78;5064529;28;19960;-91
2022/10/09 01:41:51;;;;;;;;;;;;;;;11.58;62.82;101113.94;5001914;28;19929;-91
2022/10/09 01:44:17;;;;;;;;;;;;;;;11.57;63.05;101109.56;5014388;28;19921;-92
2022/10/09 01:46:43;;;;;;;;;;;;;;;11.53;63.21;101107.34;5002926;28;20011;-92
2022/10/09 01:49:08;;;;;;;;;;;;;;;11.57;63.14;101108.72;5036760;28;19929;-93
2022/10/09 01:51:56;;;;;;;;;;;;;;;11.65;62.75;101105.25;5022348;28;19921;-92
2022/10/09 01:54:41;;;;;;;;;;;;;;;11.63;62.87;101102.69;5009139;28;20403;-93
2022/10/09 01:57:09;;;;;;;;;;;;;;;11.70;62.69;101108.31;5013238;28;20312;-93
2022/10/09 01:59:37;;;;;;;;;;;;;;;11.69;62.73;101106.63;5001174;28;19921;-93
2022/10/09 02:02:03;;;;;;;;;;;;;;;11.71;62.46;101108.16;5014005;28;19948;-92
2022/10/09 02:04:28;;;;;;;;;;;;;;;11.65;62.76;101107.94;5016966;28;19917;-90
2022/10/09 02:06:53;;;;;;;;;;;;;;;11.67;62.87;101116.72;5033364;28;19916;-91
2022/10/09 02:09:19;;;;;;;;;;;;;;;11.69;62.64;101115.53;5016634;28;19921;-92
2022/10/09 02:11:46;;;;;;;;;;;;;;;11.59;63.00;101107.56;5065145;28;19921;-91
2022/10/09 02:14:12;;;;;;;;;;;;;;;11.61;62.98;101116.34;5041677;28;19921;-91
2022/10/09 02:16:44;;;;;;;;;;;;;;;11.55;63.19;101118.81;5032270;28;19931;-90
2022/10/09 02:19:18;;;;;;;;;;;;;;;11.58;62.92;101119.31;5046961;28;19921;-89
2022/10/09 02:21:43;;;;;;;;;;;;;;;11.51;63.20;101123.63;5032909;28;19959;-91
2022/10/09 02:24:10;;;;;;;;;;;;;;;11.47;63.24;101119.59;5051529;28;20285;-90
2022/10/09 02:26:36;;;;;;;;;;;;;;;11.45;63.13;101118.03;5062957;28;19923;-92
2022/10/09 02:29:02;;;;;;;;;;;;;;;11.45;63.13;101124.28;5033754;28;19929;-93
2022/10/09 02:31:28;;;;;;;;;;;;;;;11.41;62.91;101118.34;5074185;28;19932;-91
2022/10/09 02:33:57;;;;;;;;;;;;;;;11.31;63.05;101116.75;5021419;28;20368;-91
2022/10/09 02:36:22;;;;;;;;;;;;;;;11.36;62.54;101119.81;5016134;28;19953;-91
2022/10/09 02:38:48;;;;;;;;;;;;;;;11.35;62.20;101113.56;5047988;28;19924;-92
2022/10/09 02:41:13;;;;;;;;;;;;;;;11.26;62.16;101116.34;5014200;28;19944;-91
2022/10/09 02:43:38;;;;;;;;;;;;;;;11.19;62.12;101118.81;5036949;28;19931;-92
2022/10/09 02:46:04;;;;;;;;;;;;;;;11.17;62.09;101121.66;5056627;28;19920;-91
2022/10/09 02:48:30;;;;;;;;;;;;;;;11.17;61.82;101121.66;5047691;28;19956;-92
2022/10/09 02:50:55;;;;;;;;;;;;;;;11.28;61.22;101131.34;5031899;28;20397;-92
2022/10/09 02:53:22;;;;;;;;;;;;;;;11.20;60.96;101129.44;5056531;28;19920;-92
2022/10/09 02:55:48;;;;;;;;;;;;;;;11.14;61.25;101138.13;5031922;28;19921;-92
2022/10/09 02:58:13;;;;;;;;;;;;;;;11.09;61.21;101145.78;5030713;28;19925;-90
2022/10/09 03:00:38;;;;;;;;;;;;;;;11.18;61.06;101142.19;5031371;28;19939;-92
2022/10/09 03:03:04;;;;;;;;;;;;;;;11.10;61.55;101147.50;5051068;28;19943;-91
2022/10/09 03:05:30;;;;;;;;;;;;;;;11.08;61.91;101141.44;5034229;28;19917;-91
2022/10/09 03:07:57;;;;;;;;;;;;;;;11.11;62.11;101142.97;5053401;28;20001;-93
2022/10/09 03:10:23;;;;;;;;;;;;;;;11.11;62.45;101140.28;5035483;28;19995;-92
2022/10/09 03:12:49;;;;;;;;;;;;;;;11.04;62.80;101148.09;5070636;28;19924;-94
2022/10/09 03:15:15;;;;;;;;;;;;;;;11.00;63.29;101146.69;5071647;28;19927;-93
2022/10/09 03:17:41;;;;;;;;;;;;;;;11.01;63.36;101148.41;5064959;28;19925;-91
2022/10/09 03:20:08;;;;;;;;;;;;;;;11.02;63.51;101146.56;5038553;28;19921;-92
2022/10/09 03:22:34;;;;;;;;;;;;;;;10.96;63.84;101151.56;5051382;28;19979;-92
2022/10/09 03:24:59;;;;;;;;;;;;;;;11.08;63.44;101159.41;5046280;28;20311;-93
2022/10/09 03:27:24;;;;;;;;;;;;;;;11.08;63.37;101162.94;5071895;28;19928;-92
2022/10/09 03:29:50;;;;;;;;;;;;;;;11.11;63.36;101165.34;5051183;28;19921;-95
2022/10/09 03:32:17;;;;;;;;;;;;;;;11.22;63.04;101160.75;5064089;28;19921;-91
2022/10/09 03:34:43;;;;;;;;;;;;;;;11.19;63.18;101161.88;5047386;28;19917;-94
2022/10/09 03:37:08;;;;;;;;;;;;;;;11.13;63.07;101163.34;5040968;28;19972;-92
2022/10/09 03:39:34;;;;;;;;;;;;;;;11.17;62.89;101161.19;5077564;28;19949;-90
2022/10/09 03:41:59;;;;;;;;;;;;;;;11.16;62.83;101163.03;5074064;28;19948;-93
2022/10/09 03:44:24;;;;;;;;;;;;;;;11.24;62.70;101169.47;5086319;28;19928;-94
2022/10/09 03:46:51;;;;;;;;;;;;;;;11.27;62.46;101169.19;5054629;28;20365;-92
2022/10/09 03:49:17;;;;;;;;;;;;;;;11.18;62.41;101179.88;5071054;28;19940;-93
2022/10/09 03:51:42;;;;;;;;;;;;;;;11.19;62.33;101175.31;5054150;28;20341;-92
2022/10/09 03:54:08;;;;;;;;;;;;;;;11.22;62.19;101169.66;5043727;28;20304;-93
2022/10/09 03:56:35;;;;;;;;;;;;;;;11.19;62.03;101173.50;5032940;28;19921;-92
2022/10/09 03:59:04;;;;;;;;;;;;;;;11.09;61.89;101167.31;5053044;28;19921;-93
2022/10/09 04:01:29;;;;;;;;;;;;;;;11.09;62.02;101174.56;5035942;28;19918;-93
2022/10/09 04:03:55;;;;;;;;;;;;;;;11.02;62.11;101174.31;5034489;28;19928;-93
2022/10/09 04:06:20;;;;;;;;;;;;;;;10.97;62.08;101173.91;5049746;28;19952;-94
2022/10/09 04:08:45;;;;;;;;;;;;;;;11.06;61.67;101172.19;5028596;28;19921;-91
2022/10/09 04:11:11;;;;;;;;;;;;;;;11.09;61.63;101164.63;5036157;28;20404;-92
2022/10/09 04:13:36;;;;;;;;;;;;;;;11.06;61.64;101166.78;5067570;28;20392;-91
2022/10/09 04:16:02;;;;;;;;;;;;;;;11.02;61.81;101165.41;5050055;28;19929;-92
2022/10/09 04:18:27;;;;;;;;;;;;;;;11.06;61.70;101167.63;5051322;28;19921;-92
2022/10/09 04:20:54;;;;;;;;;;;;;;;11.18;61.42;101171.78;5060484;28;19966;-92
2022/10/09 04:23:20;;;;;;;;;;;;;;;11.18;61.28;101171.78;5052951;28;19928;-92
2022/10/09 04:25:45;;;;;;;;;;;;;;;11.15;61.28;101172.09;5068319;28;19921;-92
2022/10/09 04:28:11;;;;;;;;;;;;;;;11.19;61.22;101178.00;5035804;28;19989;-93
2022/10/09 04:30:37;;;;;;;;;;;;;;;11.27;61.28;101177.28;5050767;28;19977;-92
2022/10/09 04:33:02;;;;;;;;;;;;;;;11.34;60.84;101175.66;5048670;28;19928;-93
2022/10/09 04:35:27;;;;;;;;;;;;;;;11.35;60.66;101177.34;5050069;28;19933;-92
2022/10/09 04:37:53;;;;;;;;;;;;;;;11.31;60.73;101175.97;5050757;28;19929;-92
2022/10/09 04:40:19;;;;;;;;;;;;;;;11.34;60.54;101181.03;5059284;28;19931;-92
2022/10/09 04:42:44;;;;;;;;;;;;;;;11.27;60.41;101185.34;5064652;28;20039;-91
2022/10/09 04:45:09;;;;;;;;;;;;;;;11.31;60.28;101178.66;5053882;28;19920;-92
2022/10/09 04:47:35;;;;;;;;;;;;;;;11.31;60.02;101179.50;5078448;28;19931;-93
2022/10/09 04:50:01;;;;;;;;;;;;;;;11.43;59.92;101182.81;5056538;28;19909;-92
2022/10/09 04:52:27;;;;;;;;;;;;;;;11.45;60.09;101178.13;5097670;28;19923;-93
2022/10/09 04:54:54;;;;;;;;;;;;;;;11.41;60.29;101185.66;5064785;28;19948;-91
2022/10/09 04:57:21;;;;;;;;;;;;;;;11.45;60.46;101180.81;5087673;28;19909;-91
2022/10/09 04:59:46;;;;;;;;;;;;;;;11.44;60.25;101189.88;5068415;28;19929;-92
2022/10/09 05:02:12;;;;;;;;;;;;;;;11.56;59.93;101188.63;5061753;28;19921;-92
2022/10/09 05:04:39;;;;;;;;;;;;;;;11.62;59.73;101189.88;5055281;28;19921;-92
2022/10/09 05:07:04;;;;;;;;;;;;;;;11.61;59.69;101178.28;5066013;28;19921;-91
2022/10/09 05:09:30;;;;;;;;;;;;;;;11.77;59.13;101185.63;5079555;28;20006;-93
2022/10/09 05:11:55;;;;;;;;;;;;;;;11.80;58.83;101197.97;5051927;28;19944;-91
2022/10/09 05:14:20;;;;;;;;;;;;;;;11.83;58.27;101186.88;5039151;28;19948;-92
2022/10/09 05:16:48;;;;;;;;;;;;;;;11.85;58.16;101187.56;5035928;28;19924;-92
2022/10/09 05:19:15;;;;;;;;;;;;;;;12.00;57.85;101187.88;5035545;28;19913;-90
2022/10/09 05:21:40;;;;;;;;;;;;;;;12.08;57.76;101195.16;5045303;28;20070;-92
2022/10/09 05:24:05;;;;;;;;;;;;;;;12.02;57.78;101192.09;5067051;28;19990;-94
2022/10/09 05:26:31;;;;;;;;;;;;;;;12.19;57.34;101189.50;5029088;28;20019;-93
2022/10/09 05:28:56;;;;;;;;;;;;;;;12.30;56.64;101189.25;5032375;28;20012;-92
2022/10/09 05:31:24;;;;;;;;;;;;;;;12.38;56.56;101194.66;5049365;28;19968;-93
2022/10/09 05:33:51;;;;;;;;;;;;;;;12.55;55.94;101198.31;5064204;28;19921;-92
2022/10/09 05:36:16;;;;;;;;;;;;;;;12.59;55.88;101201.53;5050126;28;19925;-91
2022/10/09 05:38:42;;;;;;;;;;;;;;;12.77;55.66;101205.00;5066451;28;19920;-92
2022/10/09 05:41:09;;;;;;;;;;;;;;;13.69;53.30;101208.63;5033089;28;19920;-93
2022/10/09 05:43:36;;;;;;;;;;;;;;;15.32;49.51;101206.50;5044439;28;19928;-92
2022/10/09 05:46:12;;;;;;;;;;;;;;;16.93;45.32;101210.84;5030733;28;19917;-94
2022/10/09 05:48:38;;;;;;;;;;;;;;;18.18;42.18;101209.63;5047343;28;19920;-93
2022/10/09 05:51:07;;;;;;;;;;;;;;;19.33;40.02;101210.03;5031454;28;19990;-92
2022/10/09 05:53:32;;;;;;;;;;;;;;;20.17;37.81;101208.69;5051425;28;19963;-94
2022/10/09 05:56:07;;;;;;;;;;;;;;;20.85;36.63;101201.00;5052806;28;19916;-93
2022/10/09 05:58:33;;;;;;;;;;;;;;;21.45;35.43;101205.38;5037486;28;19926;-93
2022/10/09 06:00:59;;;;;;;;;;;;;;;21.84;34.80;101208.88;5029015;28;19928;-94
2022/10/09 06:03:24;;;;;;;;;;;;;;;22.25;34.28;101216.59;5034669;28;20299;-93
2022/10/09 06:06:09;;;;;;;;;;;;;;;22.50;33.37;101216.56;5049292;28;19924;-92
2022/10/09 06:08:35;;;;;;;;;;;;;;;22.88;33.11;101225.63;5058685;28;19921;-93
2022/10/09 06:11:30;;;;;;;;;;;;;;;23.05;33.06;101223.97;5052286;28;19920;-93
2022/10/09 06:14:17;;;;;;;;;;;;;;;23.15;32.49;101226.16;5044038;28;19917;-93
2022/10/09 06:16:42;;;;;;;;;;;;;;;23.38;32.14;101233.66;5043792;28;19951;-94
2022/10/09 06:19:10;;;;;;;;;;;;;;;23.34;32.25;101227.81;5036085;28;19909;-94
2022/10/09 06:21:35;;;;;;;;;;;;;;;23.59;31.84;101226.81;5067848;28;19932;-95
2022/10/09 06:24:01;;;;;;;;;;;;;;;23.69;31.79;101223.50;5051524;28;20076;-94
2022/10/09 06:26:28;;;;;;;;;;;;;;;23.87;31.55;101223.47;5031454;28;20402;-95
2022/10/09 06:28:53;;;;;;;;;;;;;;;23.94;31.35;101223.38;5023939;28;19917;-95
2022/10/09 06:31:21;;;;;;;;;;;;;;;23.84;31.45;101223.13;5046050;28;20345;-93
2022/10/09 06:33:49;;;;;;;;;;;;;;;24.30;31.25;101215.97;5057907;28;19916;-94
2022/10/09 06:36:21;;;;;;;;;;;;;;;24.43;31.05;101224.81;5059385;28;19921;-95
2022/10/09 06:38:48;;;;;;;;;;;;;;;24.48;31.16;101218.63;5064346;28;19924;-94
2022/10/09 06:41:20;;;;;;;;;;;;;;;24.52;31.21;101219.84;5052417;28;19966;-93
2022/10/09 06:43:49;;;;;;;;;;;;;;;24.50;31.09;101222.00;5076975;28;19937;-92
2022/10/09 06:46:19;;;;;;;;;;;;;;;24.58;31.33;101229.88;5060797;28;19972;-93
2022/10/09 06:48:44;;;;;;;;;;;;;;;24.68;31.16;101223.78;5049147;28;20025;-93
2022/10/09 06:51:10;;;;;;;;;;;;;;;24.89;31.07;101232.44;5066388;28;19928;-93
2022/10/09 06:53:36;;;;;;;;;;;;;;;25.04;30.57;101222.59;5056194;28;19925;-93
2022/10/09 06:56:02;;;;;;;;;;;;;;;25.16;30.53;101230.81;5046645;28;19948;-94
2022/10/09 06:58:30;;;;;;;;;;;;;;;25.43;30.48;101235.78;5050505;28;19932;-93
2022/10/09 07:01:05;;;;;;;;;;;;;;;25.56;30.02;101231.88;5068519;28;19939;-91
2022/10/09 07:03:32;;;;;;;;;;;;;;;25.95;29.50;101232.06;5067651;28;19925;-92
2022/10/09 07:06:05;;;;;;;;;;;;;;;26.08;28.98;101237.22;5050936;28;19940;-93
2022/10/09 07:08:31;;;;;;;;;;;;;;;26.50;28.77;101239.53;5051966;28;19921;-93
2022/10/09 07:10:56;;;;;;;;;;;;;;;27.16;27.34;101245.97;5049737;28;20623;-93
2022/10/09 07:13:22;;;;;;;;;;;;;;;27.37;27.25;101249.00;5049448;28;19917;-95
2022/10/09 07:15:47;;;;;;;;;;;;;;;27.87;26.27;101253.41;5067070;28;19909;-90
2022/10/09 07:18:12;;;;;;;;;;;;;;;27.86;25.75;101250.91;5073536;28;19980;-92
2022/10/09 07:20:38;;;;;;;;;;;;;;;28.01;25.40;101252.97;5050443;28;19931;-90
2022/10/09 07:23:03;;;;;;;;;;;;;;;28.64;24.16;101242.97;5065414;28;20364;-91
2022/10/09 07:25:28;;;;;;;;;;;;;;;28.97;23.91;101246.44;5047833;28;20384;-90
2022/10/09 07:27:54;;;;;;;;;;;;;;;29.14;23.14;101249.84;5040091;28;19925;-91
2022/10/09 07:30:19;;;;;;;;;;;;;;;29.76;22.42;101245.34;5036767;28;19972;-92
2022/10/09 07:32:45;;;;;;;;;;;;;;;30.54;21.46;101232.28;5049393;28;20343;-90
2022/10/09 07:35:11;;;;;;;;;;;;;;;30.80;21.46;101244.97;5046987;28;19921;-93
2022/10/09 07:37:36;;;;;;;;;;;;;;;31.82;20.60;101242.78;5065756;28;19927;-93
2022/10/09 07:40:02;;;;;;;;;;;;;;;32.55;19.93;101248.28;5050668;28;20007;-89
2022/10/09 07:42:28;;;;;;;;;;;;;;;33.38;19.08;101245.34;5056746;28;19928;-89
2022/10/09 07:44:53;;;;;;;;;;;;;;;33.69;18.31;101239.31;5066248;28;19939;-91
2022/10/09 07:47:18;;;;;;;;;;;;;;;34.77;17.55;101235.47;5061738;28;20040;-93
2022/10/09 07:49:43;;;;;;;;;;;;;;;35.31;17.11;101236.59;5056585;28;19924;-89
2022/10/09 07:52:09;;;;;;;;;;;;;;;35.70;16.48;101232.34;5054851;28;19971;-91
2022/10/09 07:54:35;;;;;;;;;;;;;;;36.32;16.04;101228.81;5058632;28;19999;-90
2022/10/09 07:57:00;;;;;;;;;;;;;;;36.14;15.67;101225.91;5059675;28;19975;-91
2022/10/09 07:59:26;;;;;;;;;;;;;;;36.43;15.83;101226.56;5055874;28;20396;-91
2022/10/09 08:01:51;;;;;;;;;;;;;;;37.27;15.35;101216.28;5052645;28;20066;-90
2022/10/09 08:04:16;;;;;;;;;;;;;;;37.68;15.03;101215.81;5036266;28;19917;-92
2022/10/09 08:06:43;;;;;;;;;;;;;;;38.52;14.12;101215.50;5052854;28;19947;-92
2022/10/09 08:09:08;;;;;;;;;;;;;;;39.29;13.19;101213.38;5051503;28;19920;-91
2022/10/09 08:11:34;;;;;;;;;;;;;;;39.93;12.57;101217.00;5052364;28;19920;-91
2022/10/09 08:13:59;;;;;;;;;;;;;;;39.70;12.79;101208.09;5048921;28;19913;-93
2022/10/09 08:16:24;;;;;;;;;;;;;;;41.19;11.23;101193.81;5045991;28;19928;-90
2022/10/09 08:18:53;;;;;;;;;;;;;;;42.13;11.24;101203.78;5054591;28;20404;-90
2022/10/09 08:21:18;;;;;;;;;;;;;;;42.33;10.57;101196.19;5052190;28;19924;-90
2022/10/09 08:23:43;;;;;;;;;;;;;;;42.53;10.79;101199.97;5059321;28;20389;-90
2022/10/09 08:26:13;;;;;;;;;;;;;;;41.96;10.70;101199.31;5044393;28;20025;-92
2022/10/09 08:28:38;;;;;;;;;;;;;;;41.54;10.38;101194.91;5056441;28;19987;-93
2022/10/09 08:31:13;;;;;;;;;;;;;;;42.23;10.46;101203.22;5054582;28;19980;-91
2022/10/09 08:33:38;;;;;;;;;;;;;;;42.21;10.79;101199.13;5051331;28;19939;-89
2022/10/09 08:36:04;;;;;;;;;;;;;;;43.36;9.74;101192.19;5060387;28;19948;-89
2022/10/09 08:38:29;;;;;;;;;;;;;;;42.13;10.30;101187.66;5076393;28;19952;-89
2022/10/09 08:40:56;;;;;;;;;;;;;;;42.57;9.95;101192.41;5072198;28;19931;-89
2022/10/09 08:43:33;;;;;;;;;;;;;;;43.16;9.33;101193.38;5043020;28;20016;-91
2022/10/09 08:46:02;;;;;;;;;;;;;;;43.49;9.51;101187.19;5053711;28;19920;-92
2022/10/09 08:48:27;;;;;;;;;;;;;;;43.06;9.60;101188.28;5067551;28;19916;-90
2022/10/09 08:50:53;;;;;;;;;;;;;;;44.21;9.46;101180.91;5064156;28;19921;-91
2022/10/09 08:53:24;;;;;;;;;;;;;;;44.88;8.67;101180.34;5071906;28;19924;-90
2022/10/09 08:55:49;;;;;;;;;;;;;;;45.26;8.78;101183.31;5028785;28;19921;-91
2022/10/09 08:58:16;;;;;;;;;;;;;;;45.26;8.42;101188.97;5059121;28;20044;-91
2022/10/09 09:00:45;;;;;;;;;;;;;;;44.90;8.79;101182.81;5069181;28;20214;-89
2022/10/09 09:03:29;;;;;;;;;;;;;;;45.97;8.04;101179.69;5071840;28;19980;-90
2022/10/09 09:06:08;;;;;;;;;;;;;;;45.80;8.29;101181.94;5043469;28;20315;-90
2022/10/09 09:08:54;;;;;;;;;;;;;;;44.48;8.86;101185.81;5047796;28;19917;-90
2022/10/09 09:11:22;;;;;;;;;;;;;;;44.78;8.54;101180.19;5051834;28;19933;-93
2022/10/09 09:13:54;;;;;;;;;;;;;;;45.88;8.44;101172.25;5048670;28;19956;-90
2022/10/09 09:16:19;;;;;;;;;;;;;;;45.99;8.28;101177.25;5036907;28;19991;-89
2022/10/09 09:19:03;;;;;;;;;;;;;;;46.57;7.64;101167.97;5035479;28;19952;-90
2022/10/09 09:21:36;;;;;;;;;;;;;;;46.24;8.03;101166.91;5044030;28;19979;-90
2022/10/09 09:24:02;;;;;;;;;;;;;;;46.52;7.87;101169.16;5068584;28;19909;-89
2022/10/09 09:26:27;;;;;;;;;;;;;;;47.57;7.23;101162.00;5064058;28;19983;-88
2022/10/09 09:28:54;;;;;;;;;;;;;;;47.39;7.27;101167.59;5073166;28;19947;-91
2022/10/09 09:31:23;;;;;;;;;;;;;;;47.67;7.22;101166.88;5074251;28;19916;-89
2022/10/09 09:33:55;;;;;;;;;;;;;;;48.56;6.76;101163.25;5072252;28;19925;-87
2022/10/09 09:36:29;;;;;;;;;;;;;;;48.90;6.39;101162.78;5061719;28;19925;-93
2022/10/09 09:38:55;;;;;;;;;;;;;;;47.96;6.95;101158.41;5058622;28;19917;-92
2022/10/09 09:41:20;;;;;;;;;;;;;;;45.92;7.90;101158.91;5059561;28;19916;-89
2022/10/09 09:43:47;;;;;;;;;;;;;;;47.28;7.15;101155.41;5057952;28;20292;-91
2022/10/09 09:46:16;;;;;;;;;;;;;;;48.28;6.77;101161.25;5056354;28;20020;-88
2022/10/09 09:48:47;;;;;;;;;;;;;;;46.49;7.89;101152.91;5067474;28;19917;-88
2022/10/09 09:51:15;;;;;;;;;;;;;;;46.90;7.76;101160.47;5030613;28;19921;-90
2022/10/09 09:53:44;;;;;;;;;;;;;;;46.29;8.10;101155.19;5049619;28;19994;-90
2022/10/09 09:56:10;;;;;;;;;;;;;;;44.41;9.22;101161.00;5049574;28;19978;-91
2022/10/09 09:58:37;;;;;;;;;;;;;;;45.74;8.30;101154.28;5061036;28;19925;-90
2022/10/09 10:01:05;;;;;;;;;;;;;;;44.94;8.66;101155.31;5043463;28;19921;-87
2022/10/09 10:03:30;;;;;;;;;;;;;;;43.34;9.54;101154.97;5036170;28;19932;-89
2022/10/09 10:05:55;;;;;;;;;;;;;;;44.43;9.23;101158.59;5035529;28;19921;-89
2022/10/09 10:08:22;;;;;;;;;;;;;;;43.77;10.05;101150.16;5051009;28;19917;-89
2022/10/09 10:10:47;;;;;;;;;;;;;;;44.27;9.25;101163.59;5033849;28;20344;-88
2022/10/09 10:13:20;;;;;;;;;;;;;;;43.93;9.88;101154.91;5037371;28;19977;-89
2022/10/09 10:16:03;;;;;;;;;;;;;;;44.86;9.29;101147.91;5034290;28;19925;-89
2022/10/09 10:18:31;;;;;;;;;;;;;;;44.10;9.68;101157.25;5047466;28;20401;-86
2022/10/09 10:21:10;;;;;;;;;;;;;;;44.02;9.40;101149.81;5053971;28;19921;-85
2022/10/09 10:23:42;;;;;;;;;;;;;;;44.25;9.63;101155.44;5035719;28;19959;-86
2022/10/09 10:26:09;;;;;;;;;;;;;;;43.75;10.12;101155.38;5033186;28;19976;-88
2022/10/09 10:28:36;;;;;;;;;;;;;;;42.34;10.65;101147.00;5051516;28;19917;-90
2022/10/09 10:31:01;;;;;;;;;;;;;;;40.33;11.97;101146.81;5063319;28;19939;-91
2022/10/09 10:33:28;;;;;;;;;;;;;;;39.14;13.05;101155.78;5065831;28;20329;-89
2022/10/09 10:35:54;;;;;;;;;;;;;;;39.87;12.64;101148.81;5048857;28;20015;-89
2022/10/09 10:38:28;;;;;;;;;;;;;;;39.18;13.09;101153.91;5049854;28;19959;-89
2022/10/09 10:41:12;;;;;;;;;;;;;;;39.05;13.47;101141.78;5050962;28;19925;-90
2022/10/09 10:43:38;;;;;;;;;;;;;;;37.18;14.88;101127.44;5038426;28;19932;-89
2022/10/09 10:46:05;;;;;;;;;;;;;;;35.08;17.03;101138.72;5035273;28;19921;-89
2022/10/09 10:48:40;;;;;;;;;;;;;;;34.37;17.86;101123.47;5054618;28;19917;-91
2022/10/09 10:51:05;;;;;;;;;;;;;;;35.07;17.02;101130.63;5052674;28;19981;-89
2022/10/09 10:53:33;;;;;;;;;;;;;;;33.83;18.55;101125.88;5036177;28;20355;-89
2022/10/09 10:56:01;;;;;;;;;;;;;;;33.00;19.63;101131.09;5044001;28;19965;-91
2022/10/09 10:58:26;;;;;;;;;;;;;;;32.63;19.89;101129.09;5049874;28;19924;-92
2022/10/09 11:01:10;;;;;;;;;;;;;;;32.42;20.23;101115.41;5050547;28;20303;-92
2022/10/09 11:03:38;;;;;;;;;;;;;;;31.76;20.76;101114.97;5043600;28;19917;-91
2022/10/09 11:06:05;;;;;;;;;;;;;;;31.97;20.74;101112.03;5045612;28;20436;-89
2022/10/09 11:08:33;;;;;;;;;;;;;;;33.58;18.94;101118.81;5051534;28;20067;-90
2022/10/09 11:11:05;;;;;;;;;;;;;;;33.50;18.79;101106.34;5050875;28;20337;-92
2022/10/09 11:13:31;;;;;;;;;;;;;;;34.38;18.47;101119.56;5045061;28;19970;-92
2022/10/09 11:15:59;;;;;;;;;;;;;;;35.11;17.07;101120.53;5052344;28;19999;-91
2022/10/09 11:18:28;;;;;;;;;;;;;;;34.04;17.90;101115.16;5052512;28;19925;-91
2022/10/09 11:20:53;;;;;;;;;;;;;;;33.73;18.77;101110.16;5064310;28;19925;-88
2022/10/09 11:23:18;;;;;;;;;;;;;;;34.09;18.18;101103.09;5046063;28;19924;-90
2022/10/09 11:25:49;;;;;;;;;;;;;;;34.65;17.95;101113.16;5040511;28;20265;-91
2022/10/09 11:28:19;;;;;;;;;;;;;;;34.47;18.07;101104.56;5055016;28;19920;-90
2022/10/09 11:30:56;;;;;;;;;;;;;;;34.74;17.34;101110.44;5069578;28;20445;-89
2022/10/09 11:33:27;;;;;;;;;;;;;;;34.47;17.62;101109.34;5054614;28;19928;-91
2022/10/09 11:35:55;;;;;;;;;;;;;;;33.39;18.77;101108.50;5052780;28;20400;-88
2022/10/09 11:38:20;;;;;;;;;;;;;;;33.14;19.18;101108.91;5067011;28;19952;-90
2022/10/09 11:40:45;;;;;;;;;;;;;;;33.93;18.61;101116.53;5058502;28;19920;-90
2022/10/09 11:43:23;;;;;;;;;;;;;;;34.57;17.64;101109.09;5059170;28;19924;-91
2022/10/09 11:45:51;;;;;;;;;;;;;;;34.54;17.58;101109.75;5075139;28;19920;-88
2022/10/09 11:48:29;;;;;;;;;;;;;;;33.45;18.75;101108.41;5073058;28;19923;-87
2022/10/09 11:51:00;;;;;;;;;;;;;;;31.91;20.40;101110.38;5056865;28;19936;-90
2022/10/09 11:53:25;;;;;;;;;;;;;;;31.64;20.69;101111.75;5054765;28;19962;-90
2022/10/09 11:56:00;;;;;;;;;;;;;;;31.47;20.87;101112.19;5049910;28;19967;-88
2022/10/09 11:58:25;;;;;;;;;;;;;;;31.40;21.45;101119.13;5038313;28;19921;-91
2022/10/09 12:00:52;;;;;;;;;;;;;;;31.52;21.48;101114.09;5040311;28;19921;-89
2022/10/09 12:03:32;;;;;;;;;;;;;;;31.67;20.96;101110.34;5053199;28;19917;-91
2022/10/09 12:06:05;;;;;;;;;;;;;;;31.45;20.92;101119.97;5047799;28;20431;-92
2022/10/09 12:08:31;;;;;;;;;;;;;;;30.34;22.44;101114.72;5053149;28;20308;-94
2022/10/09 12:10:58;;;;;;;;;;;;;;;30.23;22.82;101127.75;5059692;28;19928;-91
2022/10/09 12:13:38;;;;;;;;;;;;;;;29.96;23.33;101119.78;5057447;28;19956;-91
2022/10/09 12:16:04;;;;;;;;;;;;;;;29.63;23.82;101119.22;5042572;28;20470;-92
2022/10/09 12:18:33;;;;;;;;;;;;;;;29.78;23.43;101123.13;5046155;28;19917;-92
2022/10/09 12:20:59;;;;;;;;;;;;;;;29.12;23.29;101119.19;5068593;28;19935;-92
2022/10/09 12:23:28;;;;;;;;;;;;;;;29.26;23.38;101122.25;5057712;28;20277;-93
2022/10/09 12:25:54;;;;;;;;;;;;;;;29.03;23.68;101120.78;5060846;28;20012;-90
2022/10/09 12:28:26;;;;;;;;;;;;;;;29.10;24.04;101124.16;5052541;28;19956;-90
2022/10/09 12:30:52;;;;;;;;;;;;;;;28.98;24.38;101129.09;5071115;28;20351;-91
2022/10/09 12:33:21;;;;;;;;;;;;;;;28.90;24.50;101129.63;5053964;28;19921;-90
2022/10/09 12:35:47;;;;;;;;;;;;;;;28.88;24.39;101129.91;5026174;28;19999;-94
2022/10/09 12:38:25;;;;;;;;;;;;;;;28.95;23.83;101129.66;5046611;28;20032;-90
2022/10/09 12:40:50;;;;;;;;;;;;;;;29.20;23.95;101139.97;5038396;28;19920;-92
2022/10/09 12:43:16;;;;;;;;;;;;;;;28.92;24.62;101136.56;5047284;28;19935;-93
2022/10/09 12:45:42;;;;;;;;;;;;;;;28.90;24.98;101137.94;5051534;28;19940;-90